createdAt,value
2019-04-16T00:02:38.983Z,8.13
2019-04-16T00:05:12.946Z,8.23
2019-04-16T00:08:19.394Z,7.70
2019-04-16T00:10:42.998Z,8.33
2019-04-16T00:13:13.540Z,7.30
2019-04-16T00:15:41.372Z,7.77
2019-04-16T00:18:09.353Z,8.10
2019-04-16T00:20:46.698Z,7.60
2019-04-16T00:23:20.404Z,8.97
2019-04-16T00:25:47.346Z,8.30
2019-04-16T00:28:14.254Z,7.67
2019-04-16T00:30:41.191Z,8.50
2019-04-16T00:33:10.705Z,8.60
2019-04-16T00:35:36.867Z,7.77
2019-04-16T00:38:03.857Z,7.83
2019-04-16T00:40:30.808Z,7.80
2019-04-16T00:42:58.105Z,7.90
2019-04-16T00:45:25.255Z,8.70
2019-04-16T00:47:52.227Z,8.13
2019-04-16T00:50:19.248Z,8.60
2019-04-16T00:52:46.110Z,8.27
2019-04-16T00:55:14.610Z,8.20
2019-04-16T00:57:41.694Z,8.27
2019-04-16T01:00:09.781Z,8.07
2019-04-16T01:02:36.734Z,8.03
2019-04-16T01:05:04.299Z,8.13
2019-04-16T01:07:31.546Z,8.43
2019-04-16T01:09:58.615Z,8.63
2019-04-16T01:12:25.654Z,7.93
2019-04-16T01:14:52.843Z,8.30
2019-04-16T01:17:19.825Z,8.13
2019-04-16T01:19:46.715Z,8.37
2019-04-16T01:22:16.064Z,7.90
2019-04-16T01:24:42.805Z,8.43
2019-04-16T01:27:09.908Z,8.10
2019-04-16T01:29:36.924Z,8.53
2019-04-16T01:32:22.217Z,8.47
2019-04-16T01:34:57.077Z,8.60
2019-04-16T01:37:58.459Z,8.07
2019-04-16T01:40:34.385Z,8.33
2019-04-16T01:43:01.347Z,8.60
2019-04-16T01:45:29.791Z,7.87
2019-04-16T01:47:57.290Z,7.70
2019-04-16T01:50:24.150Z,7.97
2019-04-16T01:52:51.416Z,8.20
2019-04-16T01:55:19.287Z,8.50
2019-04-16T01:57:46.145Z,8.57
2019-04-16T02:00:13.411Z,8.83
2019-04-16T02:02:40.401Z,9.03
2019-04-16T02:05:07.506Z,8.60
2019-04-16T02:07:34.389Z,8.47
2019-04-16T02:10:05.957Z,8.57
2019-04-16T02:12:30.258Z,8.70
2019-04-16T02:14:57.167Z,8.57
2019-04-16T02:17:26.679Z,8.27
2019-04-16T02:19:52.943Z,8.43
2019-04-16T02:22:19.819Z,9.10
2019-04-16T02:24:47.825Z,8.93
2019-04-16T02:27:16.570Z,8.50
2019-04-16T02:29:43.429Z,8.63
2019-04-16T02:32:10.267Z,8.87
2019-04-16T02:34:38.243Z,8.90
2019-04-16T02:37:05.555Z,7.93
2019-04-16T02:39:47.878Z,8.53
2019-04-16T02:42:01.378Z,8.33
2019-04-16T02:44:28.242Z,8.70
2019-04-16T02:46:55.236Z,8.30
2019-04-16T02:49:24.429Z,8.57
2019-04-16T02:51:56.498Z,8.90
2019-04-16T02:54:34.002Z,9.13
2019-04-16T02:57:18.593Z,8.33
2019-04-16T02:59:47.344Z,9.27
2019-04-16T03:02:32.834Z,8.70
2019-04-16T03:05:07.841Z,8.73
2019-04-16T03:07:35.722Z,8.50
2019-04-16T03:10:03.855Z,9.40
2019-04-16T03:12:32.387Z,8.90
2019-04-16T03:15:01.192Z,8.63
2019-04-16T03:17:34.562Z,8.87
2019-04-16T03:20:03.352Z,9.03
2019-04-16T03:22:33.471Z,9.60
2019-04-16T03:24:59.661Z,9.27
2019-04-16T03:27:26.531Z,9.57
2019-04-16T03:29:53.685Z,9.53
2019-04-16T03:32:20.735Z,9.07
2019-04-16T03:34:50.483Z,9.57
2019-04-16T03:37:17.158Z,8.83
2019-04-16T03:39:44.918Z,8.83
2019-04-16T03:42:13.433Z,9.63
2019-04-16T03:44:40.289Z,9.40
2019-04-16T03:47:07.157Z,9.00
2019-04-16T03:49:34.037Z,9.33
2019-04-16T03:52:00.890Z,8.20
2019-04-16T03:54:27.761Z,9.63
2019-04-16T03:56:54.879Z,9.07
2019-04-16T03:59:21.734Z,9.23
2019-04-16T04:01:48.613Z,8.83
2019-04-16T04:04:15.492Z,9.57
2019-04-16T04:06:42.365Z,9.03
2019-04-16T04:09:09.420Z,9.10
2019-04-16T04:11:40.835Z,8.77
2019-04-16T04:14:05.454Z,9.50
2019-04-16T04:16:33.552Z,9.90
2019-04-16T04:19:01.709Z,8.80
2019-04-16T04:21:28.578Z,9.10
2019-04-16T04:23:57.489Z,10.30
2019-04-16T04:26:24.458Z,8.90
2019-04-16T04:28:52.555Z,9.97
2019-04-16T04:31:19.573Z,9.63
2019-04-16T04:33:46.431Z,10.17
2019-04-16T04:36:13.309Z,8.63
2019-04-16T04:38:40.195Z,10.50
2019-04-16T04:41:07.878Z,9.37
2019-04-16T04:43:35.213Z,9.00
2019-04-16T04:46:02.287Z,9.40
2019-04-16T04:48:29.344Z,8.97
2019-04-16T04:50:56.589Z,9.37
2019-04-16T04:53:23.450Z,9.23
2019-04-16T04:55:50.713Z,9.67
2019-04-16T04:58:17.662Z,9.40
2019-04-16T05:00:44.631Z,9.00
2019-04-16T05:03:15.872Z,10.30
2019-04-16T05:05:47.725Z,10.23
2019-04-16T05:08:14.585Z,10.30
2019-04-16T05:10:43.276Z,9.83
2019-04-16T05:13:10.786Z,9.33
2019-04-16T05:15:37.645Z,10.20
2019-04-16T05:18:05.958Z,9.53
2019-04-16T05:20:33.144Z,9.97
2019-04-16T05:23:00.008Z,10.23
2019-04-16T05:25:33.254Z,9.67
2019-04-16T05:27:56.634Z,10.13
2019-04-16T05:30:23.605Z,9.10
2019-04-16T05:33:10.153Z,9.07
2019-04-16T05:35:38.554Z,9.80
2019-04-16T05:38:06.190Z,9.67
2019-04-16T05:40:35.210Z,10.07
2019-04-16T05:43:02.310Z,9.37
2019-04-16T05:45:29.367Z,8.80
2019-04-16T05:47:56.539Z,10.37
2019-04-16T05:50:28.732Z,10.23
2019-04-16T05:52:53.314Z,10.10
2019-04-16T05:55:31.696Z,9.80
2019-04-16T05:57:58.966Z,9.63
2019-04-16T06:00:34.402Z,9.60
2019-04-16T06:03:01.783Z,10.00
2019-04-16T06:05:29.350Z,9.23
2019-04-16T06:08:09.041Z,9.70
2019-04-16T06:10:37.553Z,10.40
2019-04-16T06:13:18.921Z,10.23
2019-04-16T06:16:05.940Z,9.30
2019-04-16T06:18:42.911Z,10.57
2019-04-16T06:21:26.839Z,10.27
2019-04-16T06:24:06.363Z,10.77
2019-04-16T06:27:08.329Z,10.30
2019-04-16T06:30:01.396Z,9.57
2019-04-16T06:32:45.819Z,9.80
2019-04-16T06:35:44.477Z,10.43
2019-04-16T06:38:15.432Z,9.93
2019-04-16T06:41:14.333Z,10.00
2019-04-16T06:43:48.365Z,9.93
2019-04-16T06:46:29.040Z,10.30
2019-04-16T06:49:21.832Z,10.87
2019-04-16T06:52:16.677Z,10.40
2019-04-16T06:54:56.338Z,10.10
2019-04-16T06:57:48.111Z,10.70
2019-04-16T07:00:50.908Z,9.53
2019-04-16T07:03:39.968Z,9.60
2019-04-16T07:06:35.945Z,10.57
2019-04-16T07:09:41.710Z,10.23
2019-04-16T07:12:20.355Z,10.90
2019-04-16T07:14:48.318Z,10.90
2019-04-16T07:17:18.074Z,10.10
2019-04-16T07:19:45.216Z,10.43
2019-04-16T07:22:12.490Z,10.80
2019-04-16T07:24:40.066Z,10.63
2019-04-16T07:27:07.719Z,10.27
2019-04-16T07:29:39.840Z,10.40
2019-04-16T07:32:33.336Z,10.10
2019-04-16T07:35:19.273Z,10.87
2019-04-16T07:38:15.278Z,10.17
2019-04-16T07:41:00.906Z,10.33
2019-04-16T07:43:46.814Z,10.23
2019-04-16T07:46:47.070Z,10.07
2019-04-16T07:49:45.903Z,10.80
2019-04-16T07:52:31.750Z,10.37
2019-04-16T07:55:17.442Z,10.20
2019-04-16T07:57:44.510Z,10.60
2019-04-16T08:00:13.245Z,10.60
2019-04-16T08:02:40.492Z,11.00
2019-04-16T08:05:09.139Z,10.90
2019-04-16T08:07:36.881Z,10.80
2019-04-16T08:10:04.596Z,10.20
2019-04-16T08:12:33.454Z,11.37
2019-04-16T08:15:12.553Z,10.57
2019-04-16T08:17:31.852Z,11.23
2019-04-16T08:19:59.038Z,10.60
2019-04-16T08:22:27.232Z,10.50
2019-04-16T08:25:02.503Z,10.60
2019-04-16T08:27:27.042Z,11.33
2019-04-16T08:29:54.303Z,11.13
2019-04-16T08:32:21.990Z,10.80
2019-04-16T08:34:48.980Z,10.80
2019-04-16T08:37:16.201Z,10.93
2019-04-16T08:39:43.211Z,10.23
2019-04-16T08:42:10.519Z,11.17
2019-04-16T08:44:37.686Z,11.33
2019-04-16T08:47:04.845Z,11.67
2019-04-16T08:49:31.894Z,11.80
2019-04-16T08:51:59.277Z,11.00
2019-04-16T08:54:26.555Z,11.23
2019-04-16T08:56:53.867Z,11.20
2019-04-16T08:59:20.894Z,11.53
2019-04-16T09:01:48.283Z,10.90
2019-04-16T09:04:16.193Z,11.90
2019-04-16T09:06:46.395Z,11.97
2019-04-16T09:09:24.781Z,10.90
2019-04-16T09:11:58.955Z,11.87
2019-04-16T09:14:28.680Z,10.87
2019-04-16T09:17:10.986Z,11.80
2019-04-16T09:19:40.277Z,11.50
2019-04-16T09:22:07.574Z,11.37
2019-04-16T09:24:41.367Z,11.10
2019-04-16T09:27:33.963Z,10.53
2019-04-16T09:30:18.580Z,11.20
2019-04-16T09:33:00.387Z,11.03
2019-04-16T09:35:38.506Z,11.23
2019-04-16T09:38:24.808Z,10.77
2019-04-16T09:41:06.513Z,11.30
2019-04-16T09:43:35.550Z,11.43
2019-04-16T09:46:10.229Z,11.40
2019-04-16T09:48:34.739Z,11.27
2019-04-16T09:51:01.423Z,12.07
2019-04-16T09:53:33.973Z,12.20
2019-04-16T09:56:00.295Z,11.37
2019-04-16T09:58:27.485Z,11.70
2019-04-16T10:01:02.627Z,11.87
2019-04-16T10:03:37.069Z,12.10
2019-04-16T10:06:05.731Z,12.33
2019-04-16T10:08:33.625Z,12.30
2019-04-16T10:11:05.579Z,12.00
2019-04-16T10:13:34.191Z,12.40
2019-04-16T10:15:59.770Z,13.23
2019-04-16T10:18:26.843Z,12.17
2019-04-16T10:20:54.069Z,12.13
2019-04-16T10:23:52.772Z,12.33
2019-04-16T10:26:20.213Z,13.27
2019-04-16T10:28:47.514Z,12.80
2019-04-16T10:31:17.234Z,13.50
2019-04-16T10:33:44.500Z,13.23
2019-04-16T10:36:11.744Z,13.10
2019-04-16T10:38:48.701Z,13.97
2019-04-16T10:41:19.969Z,13.03
2019-04-16T10:44:10.180Z,13.90
2019-04-16T10:46:48.484Z,12.67
2019-04-16T10:49:38.205Z,13.03
2019-04-16T10:52:23.551Z,12.20
2019-04-16T10:55:18.689Z,13.33
2019-04-16T10:58:02.817Z,13.87
2019-04-16T11:01:01.301Z,13.43
2019-04-16T11:03:39.474Z,14.00
2019-04-16T11:06:22.536Z,13.67
2019-04-16T11:08:49.497Z,13.50
2019-04-16T11:11:16.530Z,14.90
2019-04-16T11:13:58.895Z,14.93
2019-04-16T11:16:17.114Z,13.87
2019-04-16T11:18:44.448Z,14.20
2019-04-16T11:21:11.610Z,15.03
2019-04-16T11:23:38.740Z,14.67
2019-04-16T11:26:05.830Z,14.37
2019-04-16T11:28:32.954Z,15.13
2019-04-16T11:31:01.074Z,14.40
2019-04-16T11:33:28.572Z,14.80
2019-04-16T11:35:55.697Z,11.35
2019-04-16T11:38:22.681Z,9.95
2019-04-16T11:40:50.165Z,10.15
2019-04-16T11:43:17.380Z,11.22
2019-04-16T11:45:44.638Z,12.95
2019-04-16T11:48:11.655Z,10.30
2019-04-16T11:50:38.640Z,10.03
2019-04-16T11:53:05.878Z,10.30
2019-04-16T11:55:32.847Z,10.32
2019-04-16T11:57:59.844Z,10.10
2019-04-16T12:00:34.703Z,11.05
2019-04-16T12:03:08.876Z,9.78
2019-04-16T12:05:54.125Z,9.73
2019-04-16T12:08:46.446Z,10.20
2019-04-16T12:11:48.580Z,9.68
2019-04-16T12:14:30.775Z,9.48
2019-04-16T12:17:19.313Z,9.20
2019-04-16T12:20:06.277Z,8.75
2019-04-16T12:22:42.078Z,8.58
2019-04-16T12:25:29.307Z,7.97
2019-04-16T12:28:12.511Z,8.18
2019-04-16T12:31:16.645Z,9.58
2019-04-16T12:33:48.138Z,9.05
2019-04-16T12:36:41.178Z,8.08
2019-04-16T12:39:40.180Z,7.97
2019-04-16T12:42:17.391Z,7.85
2019-04-16T12:45:09.671Z,7.25
2019-04-16T12:47:44.170Z,7.33
2019-04-16T12:50:33.715Z,6.72
2019-04-16T12:53:08.856Z,6.30
2019-04-16T12:55:54.558Z,7.15
2019-04-16T12:58:37.317Z,6.65
2019-04-16T13:01:24.105Z,6.40
2019-04-16T13:03:59.063Z,7.00
2019-04-16T13:06:49.040Z,6.45
2019-04-16T13:09:23.681Z,5.90
2019-04-16T13:11:56.422Z,6.12
2019-04-16T13:14:39.378Z,5.35
2019-04-16T13:17:15.182Z,5.28
2019-04-16T13:19:57.326Z,6.28
2019-04-16T13:22:28.343Z,6.30
2019-04-16T13:25:17.473Z,6.53
2019-04-16T13:27:47.903Z,6.08
2019-04-16T13:30:14.285Z,6.70
2019-04-16T13:32:41.416Z,5.58
2019-04-16T13:35:08.794Z,6.15
2019-04-16T13:37:37.857Z,6.28
2019-04-16T13:40:13.140Z,7.10
2019-04-16T13:42:40.535Z,6.87
2019-04-16T13:45:31.176Z,7.05
2019-04-16T13:48:14.787Z,7.15
2019-04-16T13:50:39.848Z,9.25
2019-04-16T13:53:28.706Z,9.80
2019-04-16T13:56:17.672Z,9.73
2019-04-16T13:59:02.593Z,10.13
2019-04-16T14:01:32.921Z,10.30
2019-04-16T14:03:59.956Z,8.85
2019-04-16T14:06:27.214Z,8.27
2019-04-16T14:08:54.225Z,8.90
2019-04-16T14:11:21.209Z,9.37
2019-04-16T14:13:50.172Z,9.70
2019-04-16T14:16:17.126Z,10.53
2019-04-16T14:18:44.217Z,10.07
2019-04-16T14:21:11.127Z,8.57
2019-04-16T14:23:38.973Z,9.03
2019-04-16T14:26:06.062Z,10.10
2019-04-16T14:28:34.622Z,9.77
2019-04-16T14:31:02.063Z,10.60
2019-04-16T14:33:40.280Z,11.40
2019-04-16T14:36:07.060Z,10.57
2019-04-16T14:38:39.742Z,11.10
2019-04-16T14:41:07.685Z,9.33
2019-04-16T14:43:37.517Z,8.20
2019-04-16T14:46:08.404Z,7.77
2019-04-16T14:48:33.745Z,8.03
2019-04-16T14:51:08.779Z,9.10
2019-04-16T14:53:56.037Z,8.77
2019-04-16T14:56:29.151Z,7.83
2019-04-16T14:59:07.333Z,7.97
2019-04-16T15:01:54.005Z,7.27
2019-04-16T15:04:40.222Z,7.60
2019-04-16T15:07:20.090Z,8.77
2019-04-16T15:10:08.203Z,9.73
2019-04-16T15:12:41.110Z,8.83
2019-04-16T15:15:17.770Z,11.00
2019-04-16T15:17:48.626Z,10.00
2019-04-16T15:20:37.773Z,8.80
2019-04-16T15:23:24.122Z,8.57
2019-04-16T15:25:56.767Z,7.77
2019-04-16T15:28:53.184Z,8.27
2019-04-16T15:31:39.405Z,7.60
2019-04-16T15:34:26.369Z,8.97
2019-04-16T15:37:02.410Z,8.60
2019-04-16T15:39:36.300Z,7.50
2019-04-16T15:42:21.738Z,8.90
2019-04-16T15:44:57.407Z,7.37
2019-04-16T15:47:32.570Z,8.50
2019-04-16T15:50:05.915Z,8.10
2019-04-16T15:52:46.676Z,7.67
2019-04-16T15:55:32.337Z,9.33
2019-04-16T15:58:09.548Z,8.77
2019-04-16T16:00:54.290Z,7.53
2019-04-16T16:03:56.067Z,8.80
2019-04-16T16:06:24.630Z,8.33
2019-04-16T16:08:59.354Z,14.60
2019-04-16T16:11:35.123Z,8.07
2019-04-16T16:14:02.298Z,8.80
2019-04-16T16:16:41.802Z,8.47
2019-04-16T16:18:58.807Z,7.43
2019-04-16T16:21:25.902Z,8.00
2019-04-16T16:23:53.058Z,7.70
2019-04-16T16:26:20.250Z,8.20
2019-04-16T16:28:47.410Z,7.60
2019-04-16T16:31:14.530Z,7.67
2019-04-16T16:33:41.802Z,8.90
2019-04-16T16:36:09.206Z,8.20
2019-04-16T16:38:36.523Z,7.90
2019-04-16T16:41:03.734Z,7.40
2019-04-16T16:43:30.950Z,7.93
2019-04-16T16:46:29.878Z,7.10
2019-04-16T16:48:57.054Z,8.03
2019-04-16T16:51:24.171Z,7.60
2019-04-16T16:54:10.397Z,6.67
2019-04-16T16:56:42.831Z,7.27
2019-04-16T16:59:22.219Z,6.73
2019-04-16T17:02:00.017Z,7.40
2019-04-16T17:04:33.015Z,6.80
2019-04-16T17:07:00.953Z,7.37
2019-04-16T17:09:31.278Z,7.30
2019-04-16T17:11:58.542Z,7.77
2019-04-16T17:14:25.518Z,6.50
2019-04-16T17:16:52.855Z,5.50
2019-04-16T17:19:20.063Z,4.80
2019-04-16T17:21:47.115Z,4.77
2019-04-16T17:24:14.314Z,4.47
2019-04-16T17:26:41.519Z,4.87
2019-04-16T17:29:08.812Z,5.07
2019-04-16T17:31:36.248Z,4.60
2019-04-16T17:34:03.790Z,4.73
2019-04-16T17:36:31.006Z,4.50
2019-04-16T17:38:58.218Z,3.73
2019-04-16T17:41:30.418Z,3.80
2019-04-16T17:44:15.930Z,4.03
2019-04-16T17:47:01.972Z,3.63
2019-04-16T17:49:37.035Z,4.13
2019-04-16T17:52:27.823Z,3.93
2019-04-16T17:55:03.583Z,4.37
2019-04-16T17:57:34.907Z,4.37
2019-04-16T18:00:40.342Z,4.20
2019-04-16T18:03:26.038Z,3.50
2019-04-16T18:05:59.216Z,3.33
2019-04-16T18:08:46.062Z,3.10
2019-04-16T18:11:20.382Z,3.10
2019-04-16T18:13:57.931Z,2.57
2019-04-16T18:16:43.324Z,2.90
2019-04-16T18:19:42.950Z,2.43
2019-04-16T18:22:38.774Z,2.50
2019-04-16T18:25:22.058Z,2.23
2019-04-16T18:27:55.698Z,2.40
2019-04-16T18:30:39.495Z,2.47
2019-04-16T18:33:16.132Z,2.70
2019-04-16T18:36:20.860Z,2.50
2019-04-16T18:39:07.865Z,2.70
2019-04-16T18:41:40.175Z,2.60
2019-04-16T18:44:29.033Z,2.13
2019-04-16T18:47:05.956Z,2.37
2019-04-16T18:49:33.746Z,2.00
2019-04-16T18:52:01.014Z,1.97
2019-04-16T18:54:28.298Z,1.93
2019-04-16T18:56:55.574Z,2.00
2019-04-16T18:59:22.868Z,2.00
2019-04-16T19:01:53.978Z,2.20
2019-04-16T19:04:21.105Z,2.20
2019-04-16T19:06:48.383Z,2.00
2019-04-16T19:09:15.587Z,2.13
2019-04-16T19:11:43.095Z,2.30
2019-04-16T19:14:13.180Z,2.10
2019-04-16T19:16:39.954Z,2.30
2019-04-16T19:19:07.200Z,2.60
2019-04-16T19:21:34.431Z,2.60
2019-04-16T19:24:01.743Z,2.40
2019-04-16T19:26:30.370Z,2.23
2019-04-16T19:28:58.939Z,2.30
2019-04-16T19:31:26.410Z,1.90
2019-04-16T19:33:53.666Z,2.10
2019-04-16T19:36:24.730Z,2.03
2019-04-16T19:38:49.968Z,2.30
2019-04-16T19:41:17.075Z,2.90
2019-04-16T19:43:44.174Z,2.60
2019-04-16T19:46:15.347Z,2.50
2019-04-16T19:48:40.671Z,2.50
2019-04-16T19:51:08.913Z,2.10
2019-04-16T19:53:36.400Z,2.10
2019-04-16T19:56:03.603Z,2.23
2019-04-16T19:58:30.725Z,1.80
2019-04-16T20:00:59.126Z,1.80
2019-04-16T20:03:30.106Z,1.57
2019-04-16T20:05:56.229Z,2.00
2019-04-16T20:08:23.482Z,1.80
2019-04-16T20:10:50.553Z,1.83
2019-04-16T20:13:17.698Z,1.90
2019-04-16T20:15:45.153Z,2.33
2019-04-16T20:18:12.342Z,1.60
2019-04-16T20:20:39.793Z,1.70
2019-04-16T20:23:07.126Z,1.60
2019-04-16T20:25:35.081Z,1.80
2019-04-16T20:28:02.420Z,1.60
2019-04-16T20:30:30.299Z,1.60
2019-04-16T20:32:57.702Z,1.87
2019-04-16T20:35:24.957Z,1.87
2019-04-16T20:37:53.975Z,1.90
2019-04-16T20:40:21.256Z,2.40
2019-04-16T20:42:48.447Z,1.90
2019-04-16T20:45:16.706Z,1.87
2019-04-16T20:47:43.939Z,2.77
2019-04-16T20:50:11.259Z,1.87
2019-04-16T20:52:40.096Z,1.90
2019-04-16T20:55:08.738Z,2.00
2019-04-16T20:57:38.983Z,1.70
2019-04-16T21:00:10.260Z,2.07
2019-04-16T21:02:34.913Z,1.77
2019-04-16T21:05:04.389Z,1.90
2019-04-16T21:07:31.222Z,2.03
2019-04-16T21:10:02.516Z,2.20
2019-04-16T21:12:27.676Z,2.43
2019-04-16T21:14:55.459Z,2.60
2019-04-16T21:17:22.709Z,2.53
2019-04-16T21:19:49.922Z,2.37
2019-04-16T21:22:17.414Z,2.70
2019-04-16T21:24:45.118Z,2.70
2019-04-16T21:27:12.502Z,2.50
2019-04-16T21:29:39.795Z,3.30
2019-04-16T21:32:10.801Z,2.07
2019-04-16T21:34:43.611Z,2.27
2019-04-16T21:37:18.038Z,2.20
2019-04-16T21:39:52.628Z,1.63
2019-04-16T21:42:19.610Z,1.90
2019-04-16T21:44:46.814Z,2.13
2019-04-16T21:47:14.034Z,1.80
2019-04-16T21:49:45.044Z,1.97
2019-04-16T21:52:10.198Z,2.20
2019-04-16T21:54:37.946Z,1.83
2019-04-16T21:57:05.591Z,2.03
2019-04-16T21:59:32.874Z,2.10
2019-04-16T22:02:01.194Z,2.00
2019-04-16T22:04:28.547Z,1.80
2019-04-16T22:06:56.034Z,1.80
2019-04-16T22:09:23.317Z,2.20
2019-04-16T22:11:50.605Z,2.50
2019-04-16T22:14:22.014Z,2.40
2019-04-16T22:16:47.422Z,2.30
2019-04-16T22:19:15.012Z,3.13
2019-04-16T22:21:42.853Z,2.80
2019-04-16T22:24:11.069Z,2.63
2019-04-16T22:26:38.286Z,3.10
2019-04-16T22:29:05.538Z,3.50
2019-04-16T22:31:32.706Z,3.50
2019-04-16T22:34:00.128Z,3.43
2019-04-16T22:36:27.370Z,3.53
2019-04-16T22:39:00.430Z,3.03
2019-04-16T22:41:43.942Z,3.50
2019-04-16T22:44:22.702Z,3.60
2019-04-16T22:46:56.330Z,4.33
2019-04-16T22:49:23.895Z,4.20
2019-04-16T22:51:51.087Z,4.50
2019-04-16T22:54:20.692Z,4.50
2019-04-16T22:56:57.756Z,4.67
2019-04-16T22:59:25.818Z,4.80
2019-04-16T23:01:53.446Z,3.60
2019-04-16T23:04:22.770Z,3.10
2019-04-16T23:06:50.007Z,3.20
2019-04-16T23:09:18.012Z,2.80
2019-04-16T23:11:45.139Z,2.80
2019-04-16T23:14:12.327Z,2.70
2019-04-16T23:16:42.730Z,2.93
2019-04-16T23:19:08.530Z,2.90
2019-04-16T23:21:35.782Z,2.37
2019-04-16T23:24:03.299Z,3.17
2019-04-16T23:26:33.020Z,2.57
2019-04-16T23:28:59.581Z,2.50
2019-04-16T23:31:26.824Z,2.47
2019-04-16T23:33:54.083Z,2.50
2019-04-16T23:36:21.310Z,2.50
2019-04-16T23:38:48.494Z,2.87
2019-04-16T23:41:16.755Z,2.80
2019-04-16T23:43:56.850Z,2.90
2019-04-16T23:46:42.101Z,2.90
2019-04-16T23:49:43.836Z,2.67
2019-04-16T23:52:14.039Z,2.97
2019-04-16T23:54:48.131Z,2.87
2019-04-16T23:57:24.900Z,2.93
